Time;durP1;ratioP1;P1;durP2;ratioP2;P2;SDS_P1;SDS_P2;PMS_P1;PMS_P2;Temp;Humidity;BMP_temperature;BMP_pressure;BME280_temperature;BME280_humidity;BME280_pressure;Samples;Min_cycle;Max_cycle;Signal;HPM_P1;HPM_P2
2022/07/27 17:52:44;;;;;;;6.88;2.95;;;29.70;82.40;;;;;;5036756;27;20455;-70
2022/07/27 17:55:10;;;;;;;4.88;2.88;;;29.40;82.60;;;;;;5029499;28;20132;-70
2022/07/27 17:57:35;;;;;;;6.20;2.80;;;29.30;83.10;;;;;;5021280;28;20498;-71
2022/07/27 18:00:03;;;;;;;4.95;2.65;;;29.40;83.60;;;;;;5021960;28;20443;-70
2022/07/27 18:02:29;;;;;;;6.38;2.92;;;29.40;84.00;;;;;;5015846;28;20010;-71
2022/07/27 18:04:55;;;;;;;4.43;2.70;;;29.30;84.00;;;;;;5017472;28;20045;-71
2022/07/27 18:07:21;;;;;;;3.88;2.72;;;29.30;84.00;;;;;;5018044;28;20057;-71
2022/07/27 18:09:47;;;;;;;5.07;3.00;;;29.20;83.80;;;;;;5018842;28;20053;-72
2022/07/27 18:12:12;;;;;;;4.32;2.65;;;29.10;84.10;;;;;;5020616;28;20113;-70
2022/07/27 18:15:45;;;;;;;4.70;2.95;;;29.00;84.30;;;;;;5022791;28;20029;-71
2022/07/27 18:17:23;;;;;;;4.63;2.78;;;28.90;84.00;;;;;;5023637;28;20061;-72
2022/07/27 18:19:49;;;;;;;10.68;3.17;;;28.90;84.40;;;;;;5024271;28;20586;-72
2022/07/27 18:22:15;;;;;;;6.88;3.17;;;28.70;84.30;;;;;;5023567;28;20037;-71
2022/07/27 18:24:40;;;;;;;5.22;2.70;;;28.80;84.40;;;;;;5015517;28;20100;-72
2022/07/27 18:27:06;;;;;;;5.55;2.80;;;28.80;84.60;;;;;;5013900;28;20034;-72
2022/07/27 18:29:31;;;;;;;6.25;3.10;;;28.70;84.70;;;;;;5006904;28;20108;-72
2022/07/27 18:31:57;;;;;;;4.53;2.72;;;28.60;85.20;;;;;;5009447;28;20053;-71
2022/07/27 18:34:23;;;;;;;6.13;2.88;;;28.50;85.20;;;;;;5009604;28;20037;-71
2022/07/27 18:36:48;;;;;;;6.95;3.08;;;28.40;85.40;;;;;;5008476;28;20400;-71
2022/07/27 18:39:14;;;;;;;5.93;3.17;;;28.40;85.60;;;;;;5015609;28;20613;-71
2022/07/27 18:41:39;;;;;;;4.60;2.55;;;28.10;85.90;;;;;;5018195;28;20042;-72
2022/07/27 18:44:05;;;;;;;5.28;3.13;;;28.10;85.90;;;;;;5013484;28;20022;-70
2022/07/27 18:46:31;;;;;;;5.65;2.95;;;27.90;86.50;;;;;;5016014;28;20071;-71
2022/07/27 18:48:57;;;;;;;4.88;3.13;;;27.90;86.20;;;;;;5015233;28;20044;-69
2022/07/27 18:51:22;;;;;;;6.63;3.15;;;27.70;87.40;;;;;;5023914;28;20067;-71
2022/07/27 18:53:48;;;;;;;6.85;3.60;;;27.40;88.40;;;;;;5010039;28;20036;-72
2022/07/27 18:56:14;;;;;;;7.57;3.00;;;27.30;89.30;;;;;;5025313;28;20132;-72
2022/07/27 18:58:40;;;;;;;6.63;3.10;;;27.00;90.40;;;;;;5011737;28;20034;-70
2022/07/27 19:01:08;;;;;;;7.60;4.13;;;26.90;90.40;;;;;;5011794;28;20392;-71
2022/07/27 19:03:33;;;;;;;6.35;3.17;;;26.50;91.20;;;;;;5003067;28;20037;-72
2022/07/27 19:05:59;;;;;;;7.78;3.38;;;26.30;91.80;;;;;;5008772;28;20026;-72
2022/07/27 19:08:25;;;;;;;7.78;3.33;;;26.20;92.20;;;;;;5008817;28;20120;-70
2022/07/27 19:10:51;;;;;;;6.18;3.55;;;26.10;92.50;;;;;;4993739;28;20350;-70
2022/07/27 19:13:16;;;;;;;7.18;3.08;;;26.00;92.90;;;;;;5001962;28;20030;-72
2022/07/27 19:15:43;;;;;;;6.88;3.50;;;26.00;92.60;;;;;;5004671;28;20041;-71
2022/07/27 19:18:09;;;;;;;7.15;3.53;;;26.00;93.20;;;;;;5005752;28;20026;-73
2022/07/27 19:20:36;;;;;;;6.35;3.72;;;25.90;93.10;;;;;;5000204;28;20041;-72
2022/07/27 19:23:02;;;;;;;6.57;3.60;;;25.70;92.90;;;;;;5002019;28;20631;-71
2022/07/27 19:25:29;;;;;;;10.15;3.50;;;26.00;91.80;;;;;;4995268;28;20040;-72
2022/07/27 19:27:55;;;;;;;7.18;3.65;;;26.30;91.60;;;;;;5003382;28;20033;-71
2022/07/27 19:30:20;;;;;;;7.53;3.78;;;26.30;91.50;;;;;;5008279;28;20030;-71
2022/07/27 19:32:46;;;;;;;10.07;3.58;;;26.30;91.60;;;;;;5001337;28;20468;-71
2022/07/27 19:35:12;;;;;;;5.40;3.42;;;26.50;91.10;;;;;;5006650;28;20030;-71
2022/07/27 19:37:38;;;;;;;5.75;3.22;;;26.80;90.70;;;;;;5009602;28;20044;-72
2022/07/27 19:40:06;;;;;;;7.18;3.72;;;26.50;91.40;;;;;;5000830;28;20492;-71
2022/07/27 19:42:31;;;;;;;5.32;3.22;;;26.50;91.50;;;;;;5005214;28;20562;-72
2022/07/27 19:44:57;;;;;;;8.45;4.03;;;26.40;92.70;;;;;;5000563;28;20038;-72
2022/07/27 19:47:24;;;;;;;10.57;4.35;;;26.20;94.40;;;;;;5002206;28;20046;-71
2022/07/27 19:49:50;;;;;;;7.57;3.47;;;25.70;95.20;;;;;;4998454;28;20049;-72
2022/07/27 19:52:16;;;;;;;5.22;3.15;;;25.40;95.70;;;;;;5010141;28;20052;-72
2022/07/27 19:54:42;;;;;;;10.10;3.65;;;25.30;95.80;;;;;;5004440;28;20030;-71
2022/07/27 19:57:07;;;;;;;11.93;3.85;;;25.10;95.90;;;;;;4998741;28;20056;-71
2022/07/27 19:59:33;;;;;;;6.00;3.08;;;24.20;99.50;;;;;;5001471;28;20460;-71
2022/07/27 20:01:58;;;;;;;7.38;3.50;;;22.70;99.90;;;;;;5003264;28;20589;-71
2022/07/27 20:04:24;;;;;;;13.45;3.75;;;22.70;99.90;;;;;;5002488;28;20042;-71
2022/07/27 20:06:50;;;;;;;9.68;4.47;;;22.40;99.90;;;;;;4997983;28;20021;-71
2022/07/27 20:09:15;;;;;;;9.35;4.32;;;22.00;99.90;;;;;;5001586;28;20060;-73
2022/07/27 20:11:41;;;;;;;9.70;4.03;;;21.60;99.90;;;;;;4996488;28;20029;-71
2022/07/27 20:14:07;;;;;;;10.18;4.53;;;21.40;99.90;;;;;;5001257;28;20030;-71
2022/07/27 20:16:36;;;;;;;9.60;4.47;;;21.50;99.90;;;;;;5001502;28;20098;-72
2022/07/27 20:19:02;;;;;;;12.77;4.28;;;21.70;99.90;;;;;;4997703;28;20021;-72
2022/07/27 20:21:28;;;;;;;11.35;4.35;;;21.50;99.90;;;;;;5000620;28;20034;-71
2022/07/27 20:23:56;;;;;;;9.65;4.30;;;21.40;99.90;;;;;;4997747;28;20030;-71
2022/07/27 20:26:21;;;;;;;11.25;4.03;;;20.80;99.90;;;;;;4998344;28;20132;-71
2022/07/27 20:28:48;;;;;;;10.50;4.28;;;20.60;99.90;;;;;;5001848;28;20483;-72
2022/07/27 20:31:14;;;;;;;12.57;4.05;;;19.90;99.90;;;;;;5002308;28;20029;-71
2022/07/27 20:33:40;;;;;;;8.75;3.40;;;19.80;99.90;;;;;;4999729;28;20379;-71
2022/07/27 20:36:05;;;;;;;10.48;3.50;;;19.80;99.90;;;;;;4995571;28;20057;-71
2022/07/27 20:38:31;;;;;;;9.10;3.42;;;20.00;99.90;;;;;;5001621;28;20088;-71
2022/07/27 20:40:58;;;;;;;7.78;1.85;;;20.30;99.90;;;;;;5000842;28;20038;-71
2022/07/27 20:43:26;;;;;;;8.10;2.22;;;20.60;99.90;;;;;;4999885;28;20022;-71
2022/07/27 20:45:53;;;;;;;10.90;2.08;;;20.90;99.90;;;;;;5003941;28;20030;-71
2022/07/27 20:48:18;;;;;;;5.90;2.83;;;20.90;99.90;;;;;;5005269;28;20033;-71
2022/07/27 20:50:44;;;;;;;5.70;2.20;;;20.90;99.90;;;;;;4998143;28;20807;-71
2022/07/27 20:53:10;;;;;;;6.22;2.70;;;20.20;99.90;;;;;;4998773;28;20460;-70
2022/07/27 20:55:35;;;;;;;4.90;2.10;;;20.10;99.90;;;;;;5001644;28;20053;-71
2022/07/27 20:58:01;;;;;;;6.00;3.20;;;20.00;99.90;;;;;;5003787;28;20026;-70
2022/07/27 21:00:27;;;;;;;5.05;2.50;;;20.30;99.90;;;;;;5002235;28;20041;-71
2022/07/27 21:02:53;;;;;;;7.22;2.33;;;20.30;99.90;;;;;;4997235;28;20044;-71
2022/07/27 21:05:20;;;;;;;4.50;2.15;;;20.30;99.90;;;;;;5000011;28;20069;-71
2022/07/27 21:07:46;;;;;;;4.30;2.17;;;20.40;99.90;;;;;;5004980;28;20033;-71
2022/07/27 21:10:11;;;;;;;4.25;1.92;;;20.20;99.90;;;;;;4994079;28;20026;-71
2022/07/27 21:12:37;;;;;;;6.15;2.10;;;20.40;99.90;;;;;;4999424;28;20069;-71
2022/07/27 21:15:04;;;;;;;5.97;2.15;;;20.10;99.90;;;;;;5000822;28;20030;-71
2022/07/27 21:17:29;;;;;;;3.60;1.70;;;20.30;99.90;;;;;;5003112;28;20040;-71
2022/07/27 21:19:55;;;;;;;4.30;1.70;;;20.40;99.90;;;;;;5001420;28;20507;-71
2022/07/27 21:22:21;;;;;;;4.45;2.13;;;20.30;99.90;;;;;;5002122;28;20045;-71
2022/07/27 21:24:48;;;;;;;3.00;1.75;;;20.30;99.90;;;;;;5003821;28;20045;-71
2022/07/27 21:27:14;;;;;;;3.70;1.70;;;20.40;99.90;;;;;;4996727;28;20084;-71
2022/07/27 21:29:39;;;;;;;5.90;2.08;;;20.50;99.90;;;;;;5004679;28;20065;-71
2022/07/27 21:32:05;;;;;;;12.45;3.42;;;20.30;99.90;;;;;;5001206;28;20117;-71
2022/07/27 21:34:32;;;;;;;5.55;2.05;;;20.50;99.90;;;;;;5004294;28;20030;-71
2022/07/27 21:36:57;;;;;;;5.03;1.95;;;20.40;99.90;;;;;;5000798;28;20137;-70
2022/07/27 21:39:23;;;;;;;5.18;2.00;;;20.50;99.90;;;;;;5000236;28;20168;-71
2022/07/27 21:41:49;;;;;;;5.47;2.08;;;20.50;99.90;;;;;;5001069;28;20503;-71
2022/07/27 21:44:15;;;;;;;5.00;1.88;;;20.70;99.90;;;;;;4995658;28;20026;-71
2022/07/27 21:46:41;;;;;;;6.25;2.22;;;20.70;99.90;;;;;;5004210;28;20041;-71
2022/07/27 21:49:07;;;;;;;5.18;2.03;;;20.70;99.90;;;;;;5002417;28;20045;-71
2022/07/27 21:51:33;;;;;;;4.07;2.00;;;20.70;99.90;;;;;;5004514;28;20479;-72
2022/07/27 21:53:58;;;;;;;7.75;3.00;;;20.60;99.90;;;;;;5012151;28;20064;-71
2022/07/27 21:56:24;;;;;;;3.22;1.77;;;20.60;99.90;;;;;;5002738;28;20619;-71
2022/07/27 21:58:50;;;;;;;5.63;2.08;;;20.50;99.90;;;;;;5001828;28;20037;-71
2022/07/27 22:01:16;;;;;;;4.45;2.10;;;20.50;99.90;;;;;;4995564;28;21790;-71
2022/07/27 22:03:42;;;;;;;3.90;2.00;;;20.10;99.90;;;;;;5000186;28;20044;-72
2022/07/27 22:06:08;;;;;;;5.70;1.80;;;19.90;99.90;;;;;;4994445;28;20022;-71
2022/07/27 22:08:34;;;;;;;5.50;2.45;;;19.90;99.90;;;;;;5002171;28;20392;-71
2022/07/27 22:11:00;;;;;;;3.70;2.00;;;20.20;99.90;;;;;;5002136;28;20115;-70
2022/07/27 22:13:26;;;;;;;4.05;2.10;;;20.50;99.90;;;;;;5002046;28;20464;-71
2022/07/27 22:15:52;;;;;;;4.85;2.47;;;20.50;99.90;;;;;;5002444;28;20034;-71
2022/07/27 22:18:19;;;;;;;4.30;2.00;;;20.60;99.90;;;;;;5000090;28;20030;-71
2022/07/27 22:20:45;;;;;;;4.50;2.35;;;20.50;99.90;;;;;;4999245;28;20053;-71
2022/07/27 22:23:11;;;;;;;4.03;1.95;;;20.50;99.90;;;;;;5011411;28;20096;-70
2022/07/27 22:25:37;;;;;;;5.18;1.92;;;20.60;99.90;;;;;;5002864;28;20109;-71
2022/07/27 22:28:03;;;;;;;3.90;2.38;;;20.70;99.90;;;;;;5001514;28;20029;-71
2022/07/27 22:30:29;;;;;;;4.25;2.47;;;20.70;99.90;;;;;;4994924;28;20030;-71
2022/07/27 22:32:55;;;;;;;5.47;2.28;;;20.60;99.90;;;;;;5004009;28;20030;-70
2022/07/27 22:35:21;;;;;;;4.22;2.28;;;20.60;99.90;;;;;;4998140;28;20022;-70
2022/07/27 22:37:47;;;;;;;4.55;2.00;;;20.70;99.90;;;;;;5003149;28;20069;-71
2022/07/27 22:40:12;;;;;;;6.28;2.33;;;20.50;99.90;;;;;;5008448;28;20033;-70
2022/07/27 22:42:38;;;;;;;4.63;1.80;;;20.30;99.90;;;;;;5006700;28;20966;-71
2022/07/27 22:45:05;;;;;;;4.70;1.77;;;20.10;99.90;;;;;;5007131;28;20143;-71
2022/07/27 22:47:30;;;;;;;4.13;1.90;;;20.10;99.90;;;;;;5006883;28;20022;-71
2022/07/27 22:49:56;;;;;;;4.95;1.98;;;20.30;99.90;;;;;;5008182;28;20032;-70
2022/07/27 22:52:22;;;;;;;3.47;2.05;;;20.30;99.90;;;;;;5003220;28;20092;-70
2022/07/27 22:54:47;;;;;;;4.05;2.13;;;20.40;99.90;;;;;;5007573;28;20511;-71
2022/07/27 22:57:13;;;;;;;8.07;2.40;;;20.30;99.90;;;;;;4996925;28;20606;-71
2022/07/27 22:59:39;;;;;;;3.97;2.17;;;20.40;99.90;;;;;;5008003;28;20030;-70
2022/07/27 23:02:05;;;;;;;2.90;1.65;;;20.50;99.90;;;;;;5003538;28;20498;-71
2022/07/27 23:04:31;;;;;;;4.90;1.45;;;20.50;99.90;;;;;;4990218;28;20492;-70
2022/07/27 23:06:57;;;;;;;3.67;1.77;;;20.50;99.90;;;;;;4987860;28;20034;-70
2022/07/27 23:09:22;;;;;;;3.20;1.65;;;20.40;99.90;;;;;;4992860;28;20774;-71
2022/07/27 23:11:48;;;;;;;4.00;2.20;;;20.30;99.90;;;;;;4992224;28;20113;-71
2022/07/27 23:14:14;;;;;;;4.88;2.15;;;20.30;99.90;;;;;;4993639;28;20092;-71
2022/07/27 23:16:41;;;;;;;3.63;2.05;;;20.40;99.90;;;;;;4992025;28;20038;-70
2022/07/27 23:19:08;;;;;;;4.00;2.20;;;20.40;99.90;;;;;;4995266;28;20061;-71
2022/07/27 23:21:33;;;;;;;2.88;1.60;;;20.50;99.90;;;;;;4993979;28;20657;-71
2022/07/27 23:24:01;;;;;;;3.72;1.88;;;20.40;99.90;;;;;;4989343;28;20038;-71
2022/07/27 23:26:27;;;;;;;3.85;1.70;;;20.20;99.90;;;;;;4993061;28;20416;-71
2022/07/27 23:28:53;;;;;;;4.53;1.92;;;19.90;99.90;;;;;;4993816;28;20038;-71
2022/07/27 23:31:19;;;;;;;3.35;1.75;;;20.00;99.90;;;;;;4993786;28;20030;-71
2022/07/27 23:33:45;;;;;;;4.20;1.58;;;19.90;99.90;;;;;;4993440;28;20034;-71
2022/07/27 23:36:11;;;;;;;3.92;1.85;;;20.00;99.90;;;;;;4993517;28;20096;-71
2022/07/27 23:38:36;;;;;;;3.97;1.75;;;19.90;99.90;;;;;;4993780;28;20117;-70
2022/07/27 23:41:02;;;;;;;4.00;1.55;;;20.00;99.90;;;;;;4993464;28;20042;-71
2022/07/27 23:43:28;;;;;;;3.47;1.50;;;20.10;99.90;;;;;;4994390;28;20361;-70
2022/07/27 23:45:54;;;;;;;6.60;2.08;;;19.90;99.90;;;;;;4993616;28;20486;-71
2022/07/27 23:48:20;;;;;;;3.22;1.95;;;19.90;99.90;;;;;;4994343;28;20030;-70
2022/07/27 23:50:46;;;;;;;5.18;2.10;;;19.90;99.90;;;;;;4992187;28;20088;-71
2022/07/27 23:53:11;;;;;;;2.58;1.70;;;19.90;99.90;;;;;;4993468;28;20415;-71
2022/07/27 23:55:37;;;;;;;4.15;2.03;;;19.60;99.90;;;;;;4993211;28;20030;-71
2022/07/27 23:58:03;;;;;;;3.53;1.88;;;19.50;99.90;;;;;;4994245;28;20089;-71
